Jette Viking Hv77 — 5QEP — position and weather

sailwx.info

Track history (hours):
 
Tides and Currents Weather Stations Pressure Air Temp Water Temp Dewpoint Dewpoint Depression Visibility Wind Speed Wind Dir Waves Ship Positions

Jette Viking Hv77

Last reported at 2016-May-03 02:33 UTC. Time now 2016-May-03 03:01 UTC.
Position N 57°28' E 010°52'.

Length 16 m.

Type: Fishing. MMSI: 220046000.

Date/timePositionNaut miles runAvg speedWind from/ knotsBaromVisibWave heightAir tempDewpointWater temp
2016-May-03 02:33N 57°28' E 010°52'3 2.6
2016-May-03 01:33N 57°29' E 010°57'3 2.7
2016-May-03 00:26N 57°31' E 011°01'2 2.6
2016-May-02 23:33N 57°32' E 011°04'3 2.7
2016-May-02 22:34N 57°34' E 011°08'2 2.1
2016-May-02 21:34N 57°33' E 011°05'3 2.6
2016-May-02 20:34N 57°31' E 011°01'3 2.6
2016-May-02 19:32N 57°29' E 010°57'3 2.6
2016-May-02 18:31N 57°28' E 010°53'12 1.7
2016-May-02 11:34N 57°30' E 010°30'0 0.0
2016-May-02 10:32N 57°30' E 010°30'0 0.0
2016-May-02 09:29N 57°30' E 010°30'0 0.0
2016-May-02 08:29N 57°30' E 010°30'0 0.0
2016-May-02 05:20N 57°30' E 010°30'1 1.8
2016-May-02 04:32N 57°29' E 010°33'7 7.6
2016-May-02 03:33N 57°28' E 010°46'4 4.2
2016-May-02 02:31N 57°28' E 010°54'3 2.5
2016-May-02 01:30N 57°30' E 010°58'4 2.6
2016-May-02 00:07N 57°32' E 011°04'2 2.6
2016-May-01 23:31N 57°33' E 011°06'2 1.7
2016-May-01 22:34N 57°35' E 011°07'3 2.6
2016-May-01 21:33N 57°32' E 011°04'3 2.5
2016-May-01 20:32N 57°31' E 011°01'  
2016-Apr-24 21:32N 57°30' E 010°30'0 0.0
2016-Apr-24 20:32N 57°30' E 010°30'0 0.0
2016-Apr-24 09:23N 57°30' E 010°30'0 0.0
2016-Apr-24 08:33N 57°30' E 010°30'  
Track history (hours):
 
Tides and Currents Weather Stations Pressure Air Temp Water Temp Dewpoint Dewpoint Depression Visibility Wind Speed Wind Dir Waves Ship Positions

Jette Viking Hv77

Last reported at 2016-May-03 02:33 UTC. Time now 2016-May-03 03:01 UTC.
Position N 57°28' E 010°52'.

Length 16 m.

Type: Fishing. MMSI: 220046000.

Date/timePositionNaut miles runAvg speedWind from/ knotsBaromVisibWave heightAir tempDewpointWater temp
2016-May-03 02:33N 57°28' E 010°52'3 2.6
2016-May-03 01:33N 57°29' E 010°57'3 2.7
2016-May-03 00:26N 57°31' E 011°01'2 2.6
2016-May-02 23:33N 57°32' E 011°04'3 2.7
2016-May-02 22:34N 57°34' E 011°08'2 2.1
2016-May-02 21:34N 57°33' E 011°05'3 2.6
2016-May-02 20:34N 57°31' E 011°01'3 2.6
2016-May-02 19:32N 57°29' E 010°57'3 2.6
2016-May-02 18:31N 57°28' E 010°53'12 1.7
2016-May-02 11:34N 57°30' E 010°30'0 0.0
2016-May-02 10:32N 57°30' E 010°30'0 0.0
2016-May-02 09:29N 57°30' E 010°30'0 0.0
2016-May-02 08:29N 57°30' E 010°30'0 0.0
2016-May-02 05:20N 57°30' E 010°30'1 1.8
2016-May-02 04:32N 57°29' E 010°33'7 7.6
2016-May-02 03:33N 57°28' E 010°46'4 4.2
2016-May-02 02:31N 57°28' E 010°54'3 2.5
2016-May-02 01:30N 57°30' E 010°58'4 2.6
2016-May-02 00:07N 57°32' E 011°04'2 2.6
2016-May-01 23:31N 57°33' E 011°06'2 1.7
2016-May-01 22:34N 57°35' E 011°07'3 2.6
2016-May-01 21:33N 57°32' E 011°04'3 2.5
2016-May-01 20:32N 57°31' E 011°01'  
2016-Apr-24 21:32N 57°30' E 010°30'0 0.0
2016-Apr-24 20:32N 57°30' E 010°30'0 0.0
2016-Apr-24 09:23N 57°30' E 010°30'0 0.0
2016-Apr-24 08:33N 57°30' E 010°30'  

Dump ship's entire track history